sensor_id;sensor_type;location;lat;lon;timestamp;P1;durP1;ratioP1;P2;durP2;ratioP2
7199;SDS011;3641;49.082;8.200;2022-11-27T00:01:26;43.55;;;22.52;;
7199;SDS011;3641;49.082;8.200;2022-11-27T00:03:56;52.90;;;22.60;;
7199;SDS011;3641;49.082;8.200;2022-11-27T00:06:23;41.33;;;22.33;;
7199;SDS011;3641;49.082;8.200;2022-11-27T00:08:52;45.40;;;23.33;;
7199;SDS011;3641;49.082;8.200;2022-11-27T00:11:22;59.20;;;24.58;;
7199;SDS011;3641;49.082;8.200;2022-11-27T00:13:49;54.72;;;24.85;;
7199;SDS011;3641;49.082;8.200;2022-11-27T00:16:17;61.25;;;25.45;;
7199;SDS011;3641;49.082;8.200;2022-11-27T00:18:45;53.42;;;24.38;;
7199;SDS011;3641;49.082;8.200;2022-11-27T00:21:13;65.97;;;24.60;;
7199;SDS011;3641;49.082;8.200;2022-11-27T00:23:40;66.88;;;25.23;;
7199;SDS011;3641;49.082;8.200;2022-11-27T00:26:08;74.28;;;24.92;;
7199;SDS011;3641;49.082;8.200;2022-11-27T00:28:35;72.28;;;27.30;;
7199;SDS011;3641;49.082;8.200;2022-11-27T00:31:04;68.75;;;24.85;;
7199;SDS011;3641;49.082;8.200;2022-11-27T00:33:31;81.82;;;26.38;;
7199;SDS011;3641;49.082;8.200;2022-11-27T00:36:00;78.78;;;29.65;;
7199;SDS011;3641;49.082;8.200;2022-11-27T00:38:27;76.88;;;28.70;;
7199;SDS011;3641;49.082;8.200;2022-11-27T00:40:53;76.15;;;27.88;;
7199;SDS011;3641;49.082;8.200;2022-11-27T00:43:25;74.95;;;26.20;;
7199;SDS011;3641;49.082;8.200;2022-11-27T00:45:51;87.72;;;28.17;;
7199;SDS011;3641;49.082;8.200;2022-11-27T00:48:18;112.18;;;28.52;;
7199;SDS011;3641;49.082;8.200;2022-11-27T00:50:44;74.80;;;27.48;;
7199;SDS011;3641;49.082;8.200;2022-11-27T00:53:11;107.05;;;24.63;;
7199;SDS011;3641;49.082;8.200;2022-11-27T00:55:37;85.68;;;23.20;;
7199;SDS011;3641;49.082;8.200;2022-11-27T00:58:04;90.00;;;22.45;;
7199;SDS011;3641;49.082;8.200;2022-11-27T01:00:32;48.15;;;22.02;;
7199;SDS011;3641;49.082;8.200;2022-11-27T01:02:58;59.50;;;21.20;;
7199;SDS011;3641;49.082;8.200;2022-11-27T01:05:25;73.68;;;20.80;;
7199;SDS011;3641;49.082;8.200;2022-11-27T01:07:51;57.38;;;18.95;;
7199;SDS011;3641;49.082;8.200;2022-11-27T01:10:18;79.78;;;17.90;;
7199;SDS011;3641;49.082;8.200;2022-11-27T01:12:47;72.40;;;16.52;;
7199;SDS011;3641;49.082;8.200;2022-11-27T01:15:14;39.97;;;17.38;;
7199;SDS011;3641;49.082;8.200;2022-11-27T01:17:41;65.55;;;18.55;;
7199;SDS011;3641;49.082;8.200;2022-11-27T01:20:08;62.17;;;17.77;;
7199;SDS011;3641;49.082;8.200;2022-11-27T01:22:35;93.63;;;16.20;;
7199;SDS011;3641;49.082;8.200;2022-11-27T01:25:02;50.65;;;16.10;;
7199;SDS011;3641;49.082;8.200;2022-11-27T01:27:29;85.90;;;16.88;;
7199;SDS011;3641;49.082;8.200;2022-11-27T01:29:56;52.17;;;15.57;;
7199;SDS011;3641;49.082;8.200;2022-11-27T01:32:22;46.53;;;15.50;;
7199;SDS011;3641;49.082;8.200;2022-11-27T01:34:50;61.80;;;16.60;;
7199;SDS011;3641;49.082;8.200;2022-11-27T01:37:16;38.05;;;17.20;;
7199;SDS011;3641;49.082;8.200;2022-11-27T01:39:43;41.55;;;14.80;;
7199;SDS011;3641;49.082;8.200;2022-11-27T01:42:10;40.42;;;15.45;;
7199;SDS011;3641;49.082;8.200;2022-11-27T01:47:26;35.03;;;12.85;;
7199;SDS011;3641;49.082;8.200;2022-11-27T01:50:04;41.90;;;13.25;;
7199;SDS011;3641;49.082;8.200;2022-11-27T01:52:35;33.88;;;14.25;;
7199;SDS011;3641;49.082;8.200;2022-11-27T01:55:05;40.25;;;14.32;;
7199;SDS011;3641;49.082;8.200;2022-11-27T01:57:38;28.50;;;13.68;;
7199;SDS011;3641;49.082;8.200;2022-11-27T02:00:10;27.15;;;13.73;;
7199;SDS011;3641;49.082;8.200;2022-11-27T02:02:38;27.83;;;13.60;;
7199;SDS011;3641;49.082;8.200;2022-11-27T02:05:07;31.92;;;13.52;;
7199;SDS011;3641;49.082;8.200;2022-11-27T02:07:34;30.25;;;13.57;;
7199;SDS011;3641;49.082;8.200;2022-11-27T02:10:02;34.75;;;13.38;;
7199;SDS011;3641;49.082;8.200;2022-11-27T02:12:32;50.55;;;13.73;;
7199;SDS011;3641;49.082;8.200;2022-11-27T02:15:06;35.25;;;13.10;;
7199;SDS011;3641;49.082;8.200;2022-11-27T02:17:37;35.08;;;13.18;;
7199;SDS011;3641;49.082;8.200;2022-11-27T02:20:21;37.25;;;13.70;;
7199;SDS011;3641;49.082;8.200;2022-11-27T02:22:58;30.52;;;14.30;;
7199;SDS011;3641;49.082;8.200;2022-11-27T02:25:36;28.65;;;13.95;;
7199;SDS011;3641;49.082;8.200;2022-11-27T02:28:23;36.63;;;13.88;;
7199;SDS011;3641;49.082;8.200;2022-11-27T02:31:02;29.58;;;12.88;;
7199;SDS011;3641;49.082;8.200;2022-11-27T02:33:35;30.05;;;14.10;;
7199;SDS011;3641;49.082;8.200;2022-11-27T02:36:11;30.67;;;13.63;;
7199;SDS011;3641;49.082;8.200;2022-11-27T02:38:43;28.90;;;12.55;;
7199;SDS011;3641;49.082;8.200;2022-11-27T02:41:14;34.97;;;13.48;;
7199;SDS011;3641;49.082;8.200;2022-11-27T02:43:46;30.50;;;13.38;;
7199;SDS011;3641;49.082;8.200;2022-11-27T02:46:17;32.72;;;13.20;;
7199;SDS011;3641;49.082;8.200;2022-11-27T02:48:46;28.38;;;13.10;;
7199;SDS011;3641;49.082;8.200;2022-11-27T02:51:15;43.15;;;13.77;;
7199;SDS011;3641;49.082;8.200;2022-11-27T02:53:45;31.35;;;13.32;;
7199;SDS011;3641;49.082;8.200;2022-11-27T02:56:17;32.63;;;14.00;;
7199;SDS011;3641;49.082;8.200;2022-11-27T02:58:53;38.13;;;13.57;;
7199;SDS011;3641;49.082;8.200;2022-11-27T03:01:25;36.08;;;13.23;;
7199;SDS011;3641;49.082;8.200;2022-11-27T03:03:54;37.80;;;12.93;;
7199;SDS011;3641;49.082;8.200;2022-11-27T03:06:24;29.50;;;12.63;;
7199;SDS011;3641;49.082;8.200;2022-11-27T03:08:56;35.42;;;13.15;;
7199;SDS011;3641;49.082;8.200;2022-11-27T03:11:25;35.03;;;13.98;;
7199;SDS011;3641;49.082;8.200;2022-11-27T03:13:54;45.53;;;13.93;;
7199;SDS011;3641;49.082;8.200;2022-11-27T03:16:27;34.80;;;14.40;;
7199;SDS011;3641;49.082;8.200;2022-11-27T03:19:02;40.28;;;14.52;;
7199;SDS011;3641;49.082;8.200;2022-11-27T03:21:38;32.60;;;14.20;;
7199;SDS011;3641;49.082;8.200;2022-11-27T03:24:06;29.40;;;12.85;;
7199;SDS011;3641;49.082;8.200;2022-11-27T03:26:34;31.63;;;13.63;;
7199;SDS011;3641;49.082;8.200;2022-11-27T03:29:02;32.58;;;12.95;;
7199;SDS011;3641;49.082;8.200;2022-11-27T03:31:33;31.73;;;12.77;;
7199;SDS011;3641;49.082;8.200;2022-11-27T03:34:00;29.80;;;12.32;;
7199;SDS011;3641;49.082;8.200;2022-11-27T03:36:27;38.22;;;12.82;;
7199;SDS011;3641;49.082;8.200;2022-11-27T03:38:53;37.75;;;12.77;;
7199;SDS011;3641;49.082;8.200;2022-11-27T03:41:22;26.88;;;12.80;;
7199;SDS011;3641;49.082;8.200;2022-11-27T03:43:55;30.45;;;12.00;;
7199;SDS011;3641;49.082;8.200;2022-11-27T03:46:28;31.77;;;12.27;;
7199;SDS011;3641;49.082;8.200;2022-11-27T03:49:06;24.85;;;11.82;;
7199;SDS011;3641;49.082;8.200;2022-11-27T03:51:38;28.55;;;10.73;;
7199;SDS011;3641;49.082;8.200;2022-11-27T03:54:11;30.55;;;11.00;;
7199;SDS011;3641;49.082;8.200;2022-11-27T03:56:46;24.65;;;11.43;;
7199;SDS011;3641;49.082;8.200;2022-11-27T03:59:17;27.70;;;10.95;;
7199;SDS011;3641;49.082;8.200;2022-11-27T04:01:48;26.23;;;11.57;;
7199;SDS011;3641;49.082;8.200;2022-11-27T04:04:15;26.77;;;11.00;;
7199;SDS011;3641;49.082;8.200;2022-11-27T04:06:42;24.98;;;10.80;;
7199;SDS011;3641;49.082;8.200;2022-11-27T04:09:09;26.80;;;10.30;;
7199;SDS011;3641;49.082;8.200;2022-11-27T04:11:35;34.17;;;12.48;;
7199;SDS011;3641;49.082;8.200;2022-11-27T04:14:02;26.08;;;12.23;;
7199;SDS011;3641;49.082;8.200;2022-11-27T04:16:29;27.55;;;12.55;;
7199;SDS011;3641;49.082;8.200;2022-11-27T04:18:57;33.97;;;12.13;;
7199;SDS011;3641;49.082;8.200;2022-11-27T04:21:23;32.05;;;11.85;;
7199;SDS011;3641;49.082;8.200;2022-11-27T04:23:50;26.30;;;11.73;;
7199;SDS011;3641;49.082;8.200;2022-11-27T04:26:16;27.77;;;10.82;;
7199;SDS011;3641;49.082;8.200;2022-11-27T04:28:42;30.30;;;12.15;;
7199;SDS011;3641;49.082;8.200;2022-11-27T04:31:09;28.98;;;11.35;;
7199;SDS011;3641;49.082;8.200;2022-11-27T04:33:36;26.33;;;11.77;;
7199;SDS011;3641;49.082;8.200;2022-11-27T04:36:04;29.15;;;11.50;;
7199;SDS011;3641;49.082;8.200;2022-11-27T04:38:31;26.63;;;11.75;;
7199;SDS011;3641;49.082;8.200;2022-11-27T04:40:58;36.00;;;12.55;;
7199;SDS011;3641;49.082;8.200;2022-11-27T04:43:25;23.85;;;11.18;;
7199;SDS011;3641;49.082;8.200;2022-11-27T04:45:52;28.80;;;12.00;;
7199;SDS011;3641;49.082;8.200;2022-11-27T04:48:19;37.92;;;13.55;;
7199;SDS011;3641;49.082;8.200;2022-11-27T04:50:45;33.25;;;11.77;;
7199;SDS011;3641;49.082;8.200;2022-11-27T04:53:13;31.08;;;12.85;;
7199;SDS011;3641;49.082;8.200;2022-11-27T04:55:40;30.90;;;11.77;;
7199;SDS011;3641;49.082;8.200;2022-11-27T04:58:06;28.77;;;12.05;;
7199;SDS011;3641;49.082;8.200;2022-11-27T05:00:33;25.77;;;11.13;;
7199;SDS011;3641;49.082;8.200;2022-11-27T05:02:59;26.83;;;11.93;;
7199;SDS011;3641;49.082;8.200;2022-11-27T05:05:26;29.40;;;12.68;;
7199;SDS011;3641;49.082;8.200;2022-11-27T05:07:52;30.70;;;12.80;;
7199;SDS011;3641;49.082;8.200;2022-11-27T05:10:20;28.45;;;11.93;;
7199;SDS011;3641;49.082;8.200;2022-11-27T05:12:47;29.25;;;11.68;;
7199;SDS011;3641;49.082;8.200;2022-11-27T05:15:13;31.15;;;12.23;;
7199;SDS011;3641;49.082;8.200;2022-11-27T05:17:40;30.20;;;11.93;;
7199;SDS011;3641;49.082;8.200;2022-11-27T05:20:07;28.88;;;12.27;;
7199;SDS011;3641;49.082;8.200;2022-11-27T05:22:34;27.65;;;12.02;;
7199;SDS011;3641;49.082;8.200;2022-11-27T05:25:00;29.55;;;12.77;;
7199;SDS011;3641;49.082;8.200;2022-11-27T05:27:28;33.83;;;13.68;;
7199;SDS011;3641;49.082;8.200;2022-11-27T05:29:55;28.92;;;12.57;;
7199;SDS011;3641;49.082;8.200;2022-11-27T05:32:21;28.60;;;13.05;;
7199;SDS011;3641;49.082;8.200;2022-11-27T05:34:48;32.50;;;14.02;;
7199;SDS011;3641;49.082;8.200;2022-11-27T05:37:14;30.02;;;12.93;;
7199;SDS011;3641;49.082;8.200;2022-11-27T05:39:41;28.42;;;11.40;;
7199;SDS011;3641;49.082;8.200;2022-11-27T05:42:07;32.88;;;12.75;;
7199;SDS011;3641;49.082;8.200;2022-11-27T05:44:35;33.58;;;12.65;;
7199;SDS011;3641;49.082;8.200;2022-11-27T05:47:02;34.88;;;12.00;;
7199;SDS011;3641;49.082;8.200;2022-11-27T05:49:28;30.92;;;12.55;;
7199;SDS011;3641;49.082;8.200;2022-11-27T05:51:55;27.90;;;13.25;;
7199;SDS011;3641;49.082;8.200;2022-11-27T05:54:21;33.83;;;12.77;;
7199;SDS011;3641;49.082;8.200;2022-11-27T05:56:48;32.35;;;12.68;;
7199;SDS011;3641;49.082;8.200;2022-11-27T05:59:14;31.92;;;13.40;;
7199;SDS011;3641;49.082;8.200;2022-11-27T06:01:42;33.25;;;12.45;;
7199;SDS011;3641;49.082;8.200;2022-11-27T06:04:09;31.58;;;12.73;;
7199;SDS011;3641;49.082;8.200;2022-11-27T06:06:35;34.90;;;13.93;;
7199;SDS011;3641;49.082;8.200;2022-11-27T06:09:02;34.50;;;13.20;;
7199;SDS011;3641;49.082;8.200;2022-11-27T06:11:29;35.55;;;13.75;;
7199;SDS011;3641;49.082;8.200;2022-11-27T06:13:55;33.05;;;12.80;;
7199;SDS011;3641;49.082;8.200;2022-11-27T06:16:22;36.67;;;13.23;;
7199;SDS011;3641;49.082;8.200;2022-11-27T06:18:51;37.03;;;13.23;;
7199;SDS011;3641;49.082;8.200;2022-11-27T06:21:19;33.65;;;12.82;;
7199;SDS011;3641;49.082;8.200;2022-11-27T06:23:48;32.95;;;13.07;;
7199;SDS011;3641;49.082;8.200;2022-11-27T06:26:18;33.28;;;13.68;;
7199;SDS011;3641;49.082;8.200;2022-11-27T06:28:45;32.47;;;13.07;;
7199;SDS011;3641;49.082;8.200;2022-11-27T06:31:15;33.75;;;13.65;;
7199;SDS011;3641;49.082;8.200;2022-11-27T06:33:43;28.27;;;11.55;;
7199;SDS011;3641;49.082;8.200;2022-11-27T06:36:12;28.35;;;12.65;;
7199;SDS011;3641;49.082;8.200;2022-11-27T06:38:38;31.40;;;12.57;;
7199;SDS011;3641;49.082;8.200;2022-11-27T06:41:05;34.17;;;13.57;;
7199;SDS011;3641;49.082;8.200;2022-11-27T06:43:33;32.22;;;13.40;;
7199;SDS011;3641;49.082;8.200;2022-11-27T06:46:00;33.90;;;13.98;;
7199;SDS011;3641;49.082;8.200;2022-11-27T06:48:28;34.58;;;13.38;;
7199;SDS011;3641;49.082;8.200;2022-11-27T06:50:57;31.77;;;13.60;;
7199;SDS011;3641;49.082;8.200;2022-11-27T06:53:26;32.65;;;13.50;;
7199;SDS011;3641;49.082;8.200;2022-11-27T06:55:52;37.00;;;14.50;;
7199;SDS011;3641;49.082;8.200;2022-11-27T06:58:19;35.42;;;15.23;;
7199;SDS011;3641;49.082;8.200;2022-11-27T07:00:45;32.55;;;14.68;;
7199;SDS011;3641;49.082;8.200;2022-11-27T07:03:12;35.05;;;15.30;;
7199;SDS011;3641;49.082;8.200;2022-11-27T07:05:38;34.05;;;15.98;;
7199;SDS011;3641;49.082;8.200;2022-11-27T07:08:05;41.03;;;16.45;;
7199;SDS011;3641;49.082;8.200;2022-11-27T07:10:33;32.45;;;14.75;;
7199;SDS011;3641;49.082;8.200;2022-11-27T07:13:01;33.65;;;15.57;;
7199;SDS011;3641;49.082;8.200;2022-11-27T07:15:27;33.47;;;14.68;;
7199;SDS011;3641;49.082;8.200;2022-11-27T07:17:54;29.75;;;13.30;;
7199;SDS011;3641;49.082;8.200;2022-11-27T07:20:22;27.00;;;13.10;;
7199;SDS011;3641;49.082;8.200;2022-11-27T07:22:48;29.02;;;12.68;;
7199;SDS011;3641;49.082;8.200;2022-11-27T07:25:15;29.85;;;13.43;;
7199;SDS011;3641;49.082;8.200;2022-11-27T07:27:45;30.13;;;12.98;;
7199;SDS011;3641;49.082;8.200;2022-11-27T07:30:12;31.67;;;14.00;;
7199;SDS011;3641;49.082;8.200;2022-11-27T07:32:39;29.30;;;13.68;;
7199;SDS011;3641;49.082;8.200;2022-11-27T07:35:06;29.63;;;13.35;;
7199;SDS011;3641;49.082;8.200;2022-11-27T07:37:34;26.13;;;11.73;;
7199;SDS011;3641;49.082;8.200;2022-11-27T07:40:00;30.25;;;12.88;;
7199;SDS011;3641;49.082;8.200;2022-11-27T07:42:27;27.75;;;13.48;;
7199;SDS011;3641;49.082;8.200;2022-11-27T07:44:55;24.20;;;12.32;;
7199;SDS011;3641;49.082;8.200;2022-11-27T07:47:22;25.13;;;12.55;;
7199;SDS011;3641;49.082;8.200;2022-11-27T07:49:48;21.80;;;11.70;;
7199;SDS011;3641;49.082;8.200;2022-11-27T07:52:15;26.88;;;12.10;;
7199;SDS011;3641;49.082;8.200;2022-11-27T07:54:42;23.05;;;11.82;;
7199;SDS011;3641;49.082;8.200;2022-11-27T07:57:08;24.65;;;11.93;;
7199;SDS011;3641;49.082;8.200;2022-11-27T07:59:35;26.63;;;12.30;;
7199;SDS011;3641;49.082;8.200;2022-11-27T08:02:03;29.63;;;12.90;;
7199;SDS011;3641;49.082;8.200;2022-11-27T08:04:29;25.60;;;12.95;;
7199;SDS011;3641;49.082;8.200;2022-11-27T08:06:56;27.88;;;13.32;;
7199;SDS011;3641;49.082;8.200;2022-11-27T08:09:22;31.23;;;13.93;;
7199;SDS011;3641;49.082;8.200;2022-11-27T08:11:49;29.15;;;13.35;;
7199;SDS011;3641;49.082;8.200;2022-11-27T08:14:16;29.42;;;14.23;;
7199;SDS011;3641;49.082;8.200;2022-11-27T08:16:43;32.70;;;14.15;;
7199;SDS011;3641;49.082;8.200;2022-11-27T08:19:11;29.77;;;13.40;;
7199;SDS011;3641;49.082;8.200;2022-11-27T08:21:38;25.30;;;12.43;;
7199;SDS011;3641;49.082;8.200;2022-11-27T08:24:04;25.10;;;11.98;;
7199;SDS011;3641;49.082;8.200;2022-11-27T08:26:31;28.83;;;12.68;;
7199;SDS011;3641;49.082;8.200;2022-11-27T08:28:58;31.23;;;13.30;;
7199;SDS011;3641;49.082;8.200;2022-11-27T08:31:24;32.05;;;13.65;;
7199;SDS011;3641;49.082;8.200;2022-11-27T08:33:51;29.05;;;13.00;;
7199;SDS011;3641;49.082;8.200;2022-11-27T08:36:19;30.33;;;13.15;;
7199;SDS011;3641;49.082;8.200;2022-11-27T08:38:46;27.75;;;12.80;;
7199;SDS011;3641;49.082;8.200;2022-11-27T08:41:13;29.90;;;13.05;;
7199;SDS011;3641;49.082;8.200;2022-11-27T08:43:39;25.58;;;13.38;;
7199;SDS011;3641;49.082;8.200;2022-11-27T08:46:06;26.42;;;12.80;;
7199;SDS011;3641;49.082;8.200;2022-11-27T08:48:33;29.08;;;13.57;;
7199;SDS011;3641;49.082;8.200;2022-11-27T08:51:03;29.83;;;13.95;;
7199;SDS011;3641;49.082;8.200;2022-11-27T08:53:32;30.58;;;13.63;;
7199;SDS011;3641;49.082;8.200;2022-11-27T08:56:03;27.13;;;13.25;;
7199;SDS011;3641;49.082;8.200;2022-11-27T08:58:31;30.52;;;13.48;;
7199;SDS011;3641;49.082;8.200;2022-11-27T09:00:57;29.25;;;13.55;;
7199;SDS011;3641;49.082;8.200;2022-11-27T09:03:24;30.67;;;14.80;;
7199;SDS011;3641;49.082;8.200;2022-11-27T09:05:50;25.77;;;13.38;;
7199;SDS011;3641;49.082;8.200;2022-11-27T09:08:17;29.88;;;14.57;;
7199;SDS011;3641;49.082;8.200;2022-11-27T09:10:46;29.42;;;15.18;;
7199;SDS011;3641;49.082;8.200;2022-11-27T09:13:13;28.38;;;14.80;;
7199;SDS011;3641;49.082;8.200;2022-11-27T09:15:39;34.50;;;14.80;;
7199;SDS011;3641;49.082;8.200;2022-11-27T09:18:06;31.05;;;14.93;;
7199;SDS011;3641;49.082;8.200;2022-11-27T09:20:32;27.73;;;13.98;;
7199;SDS011;3641;49.082;8.200;2022-11-27T09:22:59;29.63;;;14.07;;
7199;SDS011;3641;49.082;8.200;2022-11-27T09:25:26;35.13;;;14.95;;
7199;SDS011;3641;49.082;8.200;2022-11-27T09:27:54;27.40;;;13.27;;
7199;SDS011;3641;49.082;8.200;2022-11-27T09:30:20;27.17;;;13.63;;
7199;SDS011;3641;49.082;8.200;2022-11-27T09:32:47;25.40;;;13.38;;
7199;SDS011;3641;49.082;8.200;2022-11-27T09:35:14;27.20;;;13.68;;
7199;SDS011;3641;49.082;8.200;2022-11-27T09:37:40;26.23;;;12.93;;
7199;SDS011;3641;49.082;8.200;2022-11-27T09:40:08;24.00;;;12.90;;
7199;SDS011;3641;49.082;8.200;2022-11-27T09:42:39;24.90;;;13.00;;
7199;SDS011;3641;49.082;8.200;2022-11-27T09:45:14;24.83;;;12.55;;
7199;SDS011;3641;49.082;8.200;2022-11-27T09:47:43;24.13;;;13.27;;
7199;SDS011;3641;49.082;8.200;2022-11-27T09:50:14;23.60;;;13.32;;
7199;SDS011;3641;49.082;8.200;2022-11-27T09:52:43;27.00;;;14.00;;
7199;SDS011;3641;49.082;8.200;2022-11-27T09:55:14;26.67;;;14.45;;
7199;SDS011;3641;49.082;8.200;2022-11-27T09:57:45;24.35;;;14.23;;
7199;SDS011;3641;49.082;8.200;2022-11-27T10:00:22;24.90;;;13.35;;
7199;SDS011;3641;49.082;8.200;2022-11-27T10:02:48;24.02;;;13.98;;
7199;SDS011;3641;49.082;8.200;2022-11-27T10:05:17;22.65;;;13.15;;
7199;SDS011;3641;49.082;8.200;2022-11-27T10:10:49;22.02;;;13.05;;
7199;SDS011;3641;49.082;8.200;2022-11-27T10:13:36;22.05;;;13.15;;
7199;SDS011;3641;49.082;8.200;2022-11-27T10:16:15;23.58;;;13.88;;
7199;SDS011;3641;49.082;8.200;2022-11-27T10:18:50;20.30;;;12.00;;
7199;SDS011;3641;49.082;8.200;2022-11-27T10:21:30;20.52;;;12.43;;
7199;SDS011;3641;49.082;8.200;2022-11-27T10:24:09;21.42;;;12.18;;
7199;SDS011;3641;49.082;8.200;2022-11-27T10:26:46;19.10;;;11.70;;
7199;SDS011;3641;49.082;8.200;2022-11-27T10:29:17;21.92;;;12.15;;
7199;SDS011;3641;49.082;8.200;2022-11-27T10:31:58;22.90;;;12.68;;
7199;SDS011;3641;49.082;8.200;2022-11-27T10:34:30;21.33;;;12.80;;
7199;SDS011;3641;49.082;8.200;2022-11-27T10:37:05;20.67;;;12.52;;
7199;SDS011;3641;49.082;8.200;2022-11-27T10:39:38;20.20;;;11.98;;
7199;SDS011;3641;49.082;8.200;2022-11-27T10:42:08;21.80;;;11.82;;
7199;SDS011;3641;49.082;8.200;2022-11-27T10:44:38;22.77;;;13.07;;
7199;SDS011;3641;49.082;8.200;2022-11-27T10:47:09;20.02;;;12.80;;
7199;SDS011;3641;49.082;8.200;2022-11-27T10:49:38;22.83;;;13.98;;
7199;SDS011;3641;49.082;8.200;2022-11-27T10:52:08;22.13;;;13.10;;
7199;SDS011;3641;49.082;8.200;2022-11-27T10:54:38;20.92;;;12.43;;
7199;SDS011;3641;49.082;8.200;2022-11-27T10:57:09;24.95;;;13.65;;
7199;SDS011;3641;49.082;8.200;2022-11-27T10:59:45;23.58;;;13.68;;
7199;SDS011;3641;49.082;8.200;2022-11-27T11:02:29;24.15;;;13.50;;
7199;SDS011;3641;49.082;8.200;2022-11-27T11:04:57;25.20;;;14.60;;
7199;SDS011;3641;49.082;8.200;2022-11-27T11:07:34;23.90;;;13.40;;
7199;SDS011;3641;49.082;8.200;2022-11-27T11:10:00;21.05;;;12.82;;
7199;SDS011;3641;49.082;8.200;2022-11-27T11:12:27;21.35;;;12.23;;
7199;SDS011;3641;49.082;8.200;2022-11-27T11:14:54;19.52;;;12.43;;
7199;SDS011;3641;49.082;8.200;2022-11-27T11:17:23;22.90;;;13.10;;
7199;SDS011;3641;49.082;8.200;2022-11-27T11:19:52;23.35;;;13.05;;
7199;SDS011;3641;49.082;8.200;2022-11-27T11:22:19;23.33;;;14.43;;
7199;SDS011;3641;49.082;8.200;2022-11-27T11:24:47;23.80;;;13.73;;
7199;SDS011;3641;49.082;8.200;2022-11-27T11:27:16;24.10;;;14.43;;
7199;SDS011;3641;49.082;8.200;2022-11-27T11:29:46;24.15;;;14.73;;
7199;SDS011;3641;49.082;8.200;2022-11-27T11:32:22;27.02;;;14.80;;
7199;SDS011;3641;49.082;8.200;2022-11-27T11:34:53;26.35;;;14.98;;
7199;SDS011;3641;49.082;8.200;2022-11-27T11:37:24;24.92;;;14.38;;
7199;SDS011;3641;49.082;8.200;2022-11-27T11:39:53;24.83;;;13.10;;
7199;SDS011;3641;49.082;8.200;2022-11-27T11:42:24;20.95;;;12.25;;
7199;SDS011;3641;49.082;8.200;2022-11-27T11:44:53;21.25;;;11.85;;
7199;SDS011;3641;49.082;8.200;2022-11-27T11:47:21;22.13;;;13.10;;
7199;SDS011;3641;49.082;8.200;2022-11-27T11:49:49;18.25;;;11.02;;
7199;SDS011;3641;49.082;8.200;2022-11-27T11:52:20;16.90;;;10.60;;
7199;SDS011;3641;49.082;8.200;2022-11-27T11:54:56;18.95;;;10.98;;
7199;SDS011;3641;49.082;8.200;2022-11-27T11:57:39;17.40;;;10.23;;
7199;SDS011;3641;49.082;8.200;2022-11-27T12:00:17;18.98;;;11.55;;
7199;SDS011;3641;49.082;8.200;2022-11-27T12:02:51;18.88;;;11.68;;
7199;SDS011;3641;49.082;8.200;2022-11-27T12:05:30;19.45;;;11.23;;
7199;SDS011;3641;49.082;8.200;2022-11-27T12:08:12;18.90;;;11.93;;
7199;SDS011;3641;49.082;8.200;2022-11-27T12:10:52;17.92;;;10.85;;
7199;SDS011;3641;49.082;8.200;2022-11-27T12:13:33;17.83;;;11.27;;
7199;SDS011;3641;49.082;8.200;2022-11-27T12:16:08;15.80;;;10.27;;
7199;SDS011;3641;49.082;8.200;2022-11-27T12:18:45;16.17;;;9.85;;
7199;SDS011;3641;49.082;8.200;2022-11-27T12:21:26;18.48;;;10.07;;
7199;SDS011;3641;49.082;8.200;2022-11-27T12:24:06;16.75;;;10.00;;
7199;SDS011;3641;49.082;8.200;2022-11-27T12:26:54;17.05;;;9.77;;
7199;SDS011;3641;49.082;8.200;2022-11-27T12:29:40;16.33;;;9.85;;
7199;SDS011;3641;49.082;8.200;2022-11-27T12:32:24;16.85;;;10.02;;
7199;SDS011;3641;49.082;8.200;2022-11-27T12:35:02;16.33;;;9.85;;
7199;SDS011;3641;49.082;8.200;2022-11-27T12:37:48;16.45;;;10.18;;
7199;SDS011;3641;49.082;8.200;2022-11-27T12:40:30;18.48;;;10.73;;
7199;SDS011;3641;49.082;8.200;2022-11-27T12:43:06;19.80;;;10.60;;
7199;SDS011;3641;49.082;8.200;2022-11-27T12:45:43;18.63;;;10.35;;
7199;SDS011;3641;49.082;8.200;2022-11-27T12:48:17;16.92;;;10.57;;
7199;SDS011;3641;49.082;8.200;2022-11-27T12:50:47;17.90;;;10.68;;
7199;SDS011;3641;49.082;8.200;2022-11-27T12:53:17;19.30;;;10.40;;
7199;SDS011;3641;49.082;8.200;2022-11-27T12:55:51;17.60;;;10.07;;
7199;SDS011;3641;49.082;8.200;2022-11-27T12:58:27;19.63;;;10.65;;
7199;SDS011;3641;49.082;8.200;2022-11-27T13:01:00;19.23;;;10.85;;
7199;SDS011;3641;49.082;8.200;2022-11-27T13:03:33;20.88;;;10.88;;
7199;SDS011;3641;49.082;8.200;2022-11-27T13:06:07;20.83;;;10.77;;
7199;SDS011;3641;49.082;8.200;2022-11-27T13:08:40;18.00;;;10.23;;
7199;SDS011;3641;49.082;8.200;2022-11-27T13:11:12;18.48;;;10.63;;
7199;SDS011;3641;49.082;8.200;2022-11-27T13:13:42;22.67;;;10.88;;
7199;SDS011;3641;49.082;8.200;2022-11-27T13:16:11;20.70;;;11.50;;
7199;SDS011;3641;49.082;8.200;2022-11-27T13:18:43;22.98;;;11.75;;
7199;SDS011;3641;49.082;8.200;2022-11-27T13:21:16;24.40;;;12.90;;
7199;SDS011;3641;49.082;8.200;2022-11-27T13:23:46;22.45;;;11.57;;
7199;SDS011;3641;49.082;8.200;2022-11-27T13:26:16;21.63;;;11.40;;
7199;SDS011;3641;49.082;8.200;2022-11-27T13:28:48;21.60;;;11.73;;
7199;SDS011;3641;49.082;8.200;2022-11-27T13:31:18;24.73;;;12.35;;
7199;SDS011;3641;49.082;8.200;2022-11-27T13:33:47;22.20;;;11.50;;
7199;SDS011;3641;49.082;8.200;2022-11-27T13:36:17;26.73;;;12.23;;
7199;SDS011;3641;49.082;8.200;2022-11-27T13:38:50;22.92;;;11.63;;
7199;SDS011;3641;49.082;8.200;2022-11-27T13:41:20;23.45;;;12.68;;
7199;SDS011;3641;49.082;8.200;2022-11-27T13:43:49;23.60;;;11.65;;
7199;SDS011;3641;49.082;8.200;2022-11-27T13:46:18;23.30;;;12.85;;
7199;SDS011;3641;49.082;8.200;2022-11-27T13:48:48;26.25;;;12.48;;
7199;SDS011;3641;49.082;8.200;2022-11-27T13:51:21;23.58;;;12.40;;
7199;SDS011;3641;49.082;8.200;2022-11-27T13:53:51;22.27;;;12.55;;
7199;SDS011;3641;49.082;8.200;2022-11-27T13:56:28;23.70;;;11.85;;
7199;SDS011;3641;49.082;8.200;2022-11-27T13:58:55;25.00;;;13.05;;
7199;SDS011;3641;49.082;8.200;2022-11-27T14:01:22;20.77;;;11.50;;
7199;SDS011;3641;49.082;8.200;2022-11-27T14:03:50;23.27;;;12.02;;
7199;SDS011;3641;49.082;8.200;2022-11-27T14:06:18;22.15;;;12.00;;
7199;SDS011;3641;49.082;8.200;2022-11-27T14:08:49;22.15;;;11.88;;
7199;SDS011;3641;49.082;8.200;2022-11-27T14:11:28;21.40;;;11.00;;
7199;SDS011;3641;49.082;8.200;2022-11-27T14:13:59;19.30;;;11.05;;
7199;SDS011;3641;49.082;8.200;2022-11-27T14:16:28;22.17;;;13.00;;
7199;SDS011;3641;49.082;8.200;2022-11-27T14:18:57;20.20;;;11.75;;
7199;SDS011;3641;49.082;8.200;2022-11-27T14:21:28;20.50;;;11.07;;
7199;SDS011;3641;49.082;8.200;2022-11-27T14:26:51;20.25;;;11.13;;
7199;SDS011;3641;49.082;8.200;2022-11-27T14:29:18;22.27;;;11.60;;
7199;SDS011;3641;49.082;8.200;2022-11-27T14:31:54;24.08;;;11.95;;
7199;SDS011;3641;49.082;8.200;2022-11-27T14:34:25;20.38;;;11.45;;
7199;SDS011;3641;49.082;8.200;2022-11-27T14:36:53;22.10;;;12.18;;
7199;SDS011;3641;49.082;8.200;2022-11-27T14:39:20;19.88;;;11.63;;
7199;SDS011;3641;49.082;8.200;2022-11-27T14:41:56;24.08;;;12.73;;
7199;SDS011;3641;49.082;8.200;2022-11-27T14:44:23;23.63;;;12.98;;
7199;SDS011;3641;49.082;8.200;2022-11-27T14:46:50;23.73;;;11.38;;
7199;SDS011;3641;49.082;8.200;2022-11-27T14:49:18;24.45;;;12.88;;
7199;SDS011;3641;49.082;8.200;2022-11-27T14:51:46;26.63;;;13.90;;
7199;SDS011;3641;49.082;8.200;2022-11-27T14:54:15;24.25;;;12.73;;
7199;SDS011;3641;49.082;8.200;2022-11-27T14:56:47;26.20;;;12.52;;
7199;SDS011;3641;49.082;8.200;2022-11-27T14:59:16;23.38;;;11.98;;
7199;SDS011;3641;49.082;8.200;2022-11-27T15:01:44;21.15;;;11.80;;
7199;SDS011;3641;49.082;8.200;2022-11-27T15:04:24;21.45;;;11.45;;
7199;SDS011;3641;49.082;8.200;2022-11-27T15:06:51;22.15;;;12.07;;
7199;SDS011;3641;49.082;8.200;2022-11-27T15:09:20;20.92;;;11.50;;
7199;SDS011;3641;49.082;8.200;2022-11-27T15:11:49;21.88;;;11.88;;